sensor_id;sensor_type;location;lat;lon;timestamp;pressure;altitude;pressure_sealevel;temperature;humidity
56992;BME280;42885;49.754;18.636;2023-04-09T00:02:04;98911.91;;;9.11;100.00
56992;BME280;42885;49.754;18.636;2023-04-09T00:04:35;98913.16;;;9.31;100.00
56992;BME280;42885;49.754;18.636;2023-04-09T00:07:06;98909.78;;;9.29;100.00
56992;BME280;42885;49.754;18.636;2023-04-09T00:09:37;98904.77;;;9.25;100.00
56992;BME280;42885;49.754;18.636;2023-04-09T00:12:07;98904.95;;;9.30;100.00
56992;BME280;42885;49.754;18.636;2023-04-09T00:14:39;98901.59;;;9.18;100.00
56992;BME280;42885;49.754;18.636;2023-04-09T00:17:10;98901.00;;;9.21;100.00
56992;BME280;42885;49.754;18.636;2023-04-09T00:19:41;98901.00;;;9.11;100.00
56992;BME280;42885;49.754;18.636;2023-04-09T00:22:12;98907.93;;;9.02;100.00
56992;BME280;42885;49.754;18.636;2023-04-09T00:24:43;98899.45;;;9.07;100.00
56992;BME280;42885;49.754;18.636;2023-04-09T00:27:14;98904.28;;;8.95;100.00
56992;BME280;42885;49.754;18.636;2023-04-09T00:29:45;98907.48;;;9.02;100.00
56992;BME280;42885;49.754;18.636;2023-04-09T00:32:16;98901.80;;;9.13;100.00
56992;BME280;42885;49.754;18.636;2023-04-09T00:34:47;98905.20;;;9.05;100.00
56992;BME280;42885;49.754;18.636;2023-04-09T00:37:20;98905.66;;;8.84;100.00
56992;BME280;42885;49.754;18.636;2023-04-09T00:39:51;98910.37;;;8.86;100.00
56992;BME280;42885;49.754;18.636;2023-04-09T00:42:22;98908.91;;;8.99;100.00
56992;BME280;42885;49.754;18.636;2023-04-09T00:44:53;98906.17;;;8.92;100.00
56992;BME280;42885;49.754;18.636;2023-04-09T00:47:24;98910.55;;;9.02;100.00
56992;BME280;42885;49.754;18.636;2023-04-09T00:49:57;98909.93;;;9.16;100.00
56992;BME280;42885;49.754;18.636;2023-04-09T00:52:29;98908.39;;;9.12;100.00
56992;BME280;42885;49.754;18.636;2023-04-09T00:55:02;98908.23;;;9.15;100.00
56992;BME280;42885;49.754;18.636;2023-04-09T00:57:33;98906.31;;;8.89;100.00
56992;BME280;42885;49.754;18.636;2023-04-09T01:00:05;98905.00;;;9.09;100.00
56992;BME280;42885;49.754;18.636;2023-04-09T01:02:36;98906.37;;;9.38;100.00
56992;BME280;42885;49.754;18.636;2023-04-09T01:05:08;98907.02;;;9.32;100.00
56992;BME280;42885;49.754;18.636;2023-04-09T01:07:56;98905.95;;;9.17;100.00
56992;BME280;42885;49.754;18.636;2023-04-09T01:10:33;98904.75;;;8.74;100.00
56992;BME280;42885;49.754;18.636;2023-04-09T01:13:15;98900.34;;;8.76;100.00
56992;BME280;42885;49.754;18.636;2023-04-09T01:15:51;98906.59;;;8.72;100.00
56992;BME280;42885;49.754;18.636;2023-04-09T01:21:12;98916.32;;;8.36;100.00
56992;BME280;42885;49.754;18.636;2023-04-09T01:23:57;98913.00;;;8.43;100.00
56992;BME280;42885;49.754;18.636;2023-04-09T01:29:04;98914.75;;;8.64;100.00
56992;BME280;42885;49.754;18.636;2023-04-09T01:31:37;98917.47;;;8.61;100.00
56992;BME280;42885;49.754;18.636;2023-04-09T01:34:10;98924.91;;;9.02;100.00
56992;BME280;42885;49.754;18.636;2023-04-09T01:36:44;98922.77;;;9.01;100.00
56992;BME280;42885;49.754;18.636;2023-04-09T01:39:15;98929.35;;;9.00;100.00
56992;BME280;42885;49.754;18.636;2023-04-09T01:41:46;98928.10;;;8.98;100.00
56992;BME280;42885;49.754;18.636;2023-04-09T01:44:18;98918.44;;;9.00;100.00
56992;BME280;42885;49.754;18.636;2023-04-09T01:46:51;98923.95;;;8.94;100.00
56992;BME280;42885;49.754;18.636;2023-04-09T01:49:22;98927.59;;;8.79;100.00
56992;BME280;42885;49.754;18.636;2023-04-09T01:51:53;98926.23;;;8.81;100.00
56992;BME280;42885;49.754;18.636;2023-04-09T01:54:24;98919.10;;;8.74;100.00
56992;BME280;42885;49.754;18.636;2023-04-09T01:56:56;98915.41;;;8.47;100.00
56992;BME280;42885;49.754;18.636;2023-04-09T01:59:27;98923.85;;;8.54;100.00
56992;BME280;42885;49.754;18.636;2023-04-09T02:02:09;98915.58;;;8.54;100.00
56992;BME280;42885;49.754;18.636;2023-04-09T02:04:45;98916.58;;;8.73;100.00
56992;BME280;42885;49.754;18.636;2023-04-09T02:07:41;98920.47;;;8.52;100.00
56992;BME280;42885;49.754;18.636;2023-04-09T02:10:14;98926.06;;;8.20;100.00
56992;BME280;42885;49.754;18.636;2023-04-09T02:12:48;98929.47;;;8.33;100.00
56992;BME280;42885;49.754;18.636;2023-04-09T02:15:21;98930.31;;;8.23;100.00
56992;BME280;42885;49.754;18.636;2023-04-09T02:17:51;98929.98;;;8.20;100.00
56992;BME280;42885;49.754;18.636;2023-04-09T02:20:22;98928.54;;;8.23;100.00
56992;BME280;42885;49.754;18.636;2023-04-09T02:22:53;98918.19;;;8.65;100.00
56992;BME280;42885;49.754;18.636;2023-04-09T02:25:25;98918.45;;;8.90;100.00
56992;BME280;42885;49.754;18.636;2023-04-09T02:27:56;98919.44;;;8.98;100.00
56992;BME280;42885;49.754;18.636;2023-04-09T02:30:27;98925.67;;;9.04;100.00
56992;BME280;42885;49.754;18.636;2023-04-09T02:32:58;98920.88;;;8.74;100.00
56992;BME280;42885;49.754;18.636;2023-04-09T02:35:29;98920.38;;;8.43;100.00
56992;BME280;42885;49.754;18.636;2023-04-09T02:38:00;98915.14;;;8.65;100.00
56992;BME280;42885;49.754;18.636;2023-04-09T02:40:32;98913.23;;;8.90;100.00
56992;BME280;42885;49.754;18.636;2023-04-09T02:43:03;98910.36;;;8.75;100.00
56992;BME280;42885;49.754;18.636;2023-04-09T02:45:34;98911.89;;;8.48;100.00
56992;BME280;42885;49.754;18.636;2023-04-09T02:48:05;98911.05;;;8.48;100.00
56992;BME280;42885;49.754;18.636;2023-04-09T02:50:37;98910.53;;;8.50;100.00
56992;BME280;42885;49.754;18.636;2023-04-09T02:53:08;98915.14;;;8.55;100.00
56992;BME280;42885;49.754;18.636;2023-04-09T02:55:39;98914.88;;;8.49;100.00
56992;BME280;42885;49.754;18.636;2023-04-09T02:58:10;98910.37;;;8.54;100.00
56992;BME280;42885;49.754;18.636;2023-04-09T03:00:41;98917.68;;;8.34;100.00
56992;BME280;42885;49.754;18.636;2023-04-09T03:03:12;98917.58;;;8.48;100.00
56992;BME280;42885;49.754;18.636;2023-04-09T03:05:43;98915.72;;;8.62;100.00
56992;BME280;42885;49.754;18.636;2023-04-09T03:08:15;98918.47;;;8.69;100.00
56992;BME280;42885;49.754;18.636;2023-04-09T03:10:46;98917.94;;;8.71;100.00
56992;BME280;42885;49.754;18.636;2023-04-09T03:13:17;98918.60;;;8.76;100.00
56992;BME280;42885;49.754;18.636;2023-04-09T03:15:52;98914.30;;;8.43;100.00
56992;BME280;42885;49.754;18.636;2023-04-09T03:18:23;98916.94;;;8.53;100.00
56992;BME280;42885;49.754;18.636;2023-04-09T03:20:54;98915.94;;;8.35;100.00
56992;BME280;42885;49.754;18.636;2023-04-09T03:23:25;98912.46;;;8.34;100.00
56992;BME280;42885;49.754;18.636;2023-04-09T03:26:00;98912.27;;;8.29;100.00
56992;BME280;42885;49.754;18.636;2023-04-09T03:28:33;98910.28;;;8.23;100.00
56992;BME280;42885;49.754;18.636;2023-04-09T03:31:04;98907.42;;;8.19;100.00
56992;BME280;42885;49.754;18.636;2023-04-09T03:33:37;98906.64;;;8.60;100.00
56992;BME280;42885;49.754;18.636;2023-04-09T03:36:09;98906.64;;;8.60;100.00
56992;BME280;42885;49.754;18.636;2023-04-09T03:38:57;98903.98;;;8.51;100.00
56992;BME280;42885;49.754;18.636;2023-04-09T03:41:31;98910.67;;;8.24;100.00
56992;BME280;42885;49.754;18.636;2023-04-09T03:44:03;98908.78;;;8.18;100.00
56992;BME280;42885;49.754;18.636;2023-04-09T03:46:36;98906.28;;;8.37;100.00
56992;BME280;42885;49.754;18.636;2023-04-09T03:49:07;98911.34;;;8.52;100.00
56992;BME280;42885;49.754;18.636;2023-04-09T03:51:43;98909.03;;;8.44;100.00
56992;BME280;42885;49.754;18.636;2023-04-09T03:54:14;98913.33;;;8.35;100.00
56992;BME280;42885;49.754;18.636;2023-04-09T03:56:46;98912.12;;;8.21;100.00
56992;BME280;42885;49.754;18.636;2023-04-09T03:59:18;98917.14;;;8.26;100.00
56992;BME280;42885;49.754;18.636;2023-04-09T04:01:49;98914.40;;;8.29;100.00
56992;BME280;42885;49.754;18.636;2023-04-09T04:04:20;98925.69;;;8.30;100.00
56992;BME280;42885;49.754;18.636;2023-04-09T04:06:53;98927.03;;;8.18;100.00
56992;BME280;42885;49.754;18.636;2023-04-09T04:09:29;98924.20;;;8.45;100.00
56992;BME280;42885;49.754;18.636;2023-04-09T04:12:02;98928.64;;;8.43;100.00
56992;BME280;42885;49.754;18.636;2023-04-09T04:14:34;98933.31;;;8.57;100.00
56992;BME280;42885;49.754;18.636;2023-04-09T04:17:07;98940.48;;;8.29;100.00
56992;BME280;42885;49.754;18.636;2023-04-09T04:19:38;98936.80;;;8.35;100.00
56992;BME280;42885;49.754;18.636;2023-04-09T04:22:10;98935.75;;;8.39;100.00
56992;BME280;42885;49.754;18.636;2023-04-09T04:24:42;98938.22;;;8.42;100.00
56992;BME280;42885;49.754;18.636;2023-04-09T04:27:15;98939.34;;;8.69;100.00
56992;BME280;42885;49.754;18.636;2023-04-09T04:29:46;98937.62;;;8.58;100.00
56992;BME280;42885;49.754;18.636;2023-04-09T04:32:21;98938.67;;;8.53;100.00
56992;BME280;42885;49.754;18.636;2023-04-09T04:34:53;98943.38;;;8.44;100.00
56992;BME280;42885;49.754;18.636;2023-04-09T04:37:25;98945.73;;;8.39;100.00
56992;BME280;42885;49.754;18.636;2023-04-09T04:40:00;98945.59;;;8.32;100.00
56992;BME280;42885;49.754;18.636;2023-04-09T04:42:33;98945.06;;;8.67;100.00
56992;BME280;42885;49.754;18.636;2023-04-09T04:45:06;98947.42;;;8.52;100.00
56992;BME280;42885;49.754;18.636;2023-04-09T04:47:42;98947.95;;;8.61;100.00
56992;BME280;42885;49.754;18.636;2023-04-09T04:50:12;98952.17;;;8.41;100.00
56992;BME280;42885;49.754;18.636;2023-04-09T04:52:48;98957.67;;;8.45;100.00
56992;BME280;42885;49.754;18.636;2023-04-09T04:55:19;98958.24;;;8.53;100.00
56992;BME280;42885;49.754;18.636;2023-04-09T04:57:53;98960.47;;;8.52;100.00
56992;BME280;42885;49.754;18.636;2023-04-09T05:00:25;98956.41;;;8.66;100.00
56992;BME280;42885;49.754;18.636;2023-04-09T05:02:57;98963.86;;;8.65;100.00
56992;BME280;42885;49.754;18.636;2023-04-09T05:05:30;98960.66;;;8.79;100.00
56992;BME280;42885;49.754;18.636;2023-04-09T05:08:01;98955.78;;;8.61;100.00
56992;BME280;42885;49.754;18.636;2023-04-09T05:10:31;98961.30;;;8.41;100.00
56992;BME280;42885;49.754;18.636;2023-04-09T05:13:04;98964.01;;;8.50;100.00
56992;BME280;42885;49.754;18.636;2023-04-09T05:15:40;98964.59;;;8.46;100.00
56992;BME280;42885;49.754;18.636;2023-04-09T05:18:11;98972.27;;;8.61;100.00
56992;BME280;42885;49.754;18.636;2023-04-09T05:20:42;98972.66;;;8.50;100.00
56992;BME280;42885;49.754;18.636;2023-04-09T05:23:13;98973.23;;;8.59;100.00
56992;BME280;42885;49.754;18.636;2023-04-09T05:25:48;98971.43;;;8.38;100.00
56992;BME280;42885;49.754;18.636;2023-04-09T05:28:20;98975.00;;;8.36;100.00
56992;BME280;42885;49.754;18.636;2023-04-09T05:30:53;98963.66;;;8.59;100.00
56992;BME280;42885;49.754;18.636;2023-04-09T05:33:25;98970.42;;;8.53;100.00
56992;BME280;42885;49.754;18.636;2023-04-09T05:35:56;98972.22;;;8.73;100.00
56992;BME280;42885;49.754;18.636;2023-04-09T05:38:27;98971.19;;;8.88;100.00
56992;BME280;42885;49.754;18.636;2023-04-09T05:41:00;98969.69;;;8.72;100.00
56992;BME280;42885;49.754;18.636;2023-04-09T05:43:31;98980.57;;;8.92;100.00
56992;BME280;42885;49.754;18.636;2023-04-09T05:46:02;98976.80;;;8.89;100.00
56992;BME280;42885;49.754;18.636;2023-04-09T05:48:36;98977.27;;;8.99;100.00
56992;BME280;42885;49.754;18.636;2023-04-09T05:51:08;98976.73;;;9.21;100.00
56992;BME280;42885;49.754;18.636;2023-04-09T05:53:41;98984.17;;;9.31;100.00
56992;BME280;42885;49.754;18.636;2023-04-09T05:56:14;98988.00;;;9.32;100.00
56992;BME280;42885;49.754;18.636;2023-04-09T05:58:52;98987.50;;;9.34;100.00
56992;BME280;42885;49.754;18.636;2023-04-09T06:01:32;98986.78;;;9.31;100.00
56992;BME280;42885;49.754;18.636;2023-04-09T06:04:05;98994.60;;;9.20;100.00
56992;BME280;42885;49.754;18.636;2023-04-09T06:06:38;98989.47;;;9.19;100.00
56992;BME280;42885;49.754;18.636;2023-04-09T06:09:17;98990.61;;;9.32;100.00
56992;BME280;42885;49.754;18.636;2023-04-09T06:11:43;98995.28;;;9.15;100.00
56992;BME280;42885;49.754;18.636;2023-04-09T06:14:13;98994.39;;;9.46;100.00
56992;BME280;42885;49.754;18.636;2023-04-09T06:16:46;98993.08;;;9.46;100.00
56992;BME280;42885;49.754;18.636;2023-04-09T06:19:19;98996.73;;;9.52;100.00
56992;BME280;42885;49.754;18.636;2023-04-09T06:21:50;99000.69;;;9.71;100.00
56992;BME280;42885;49.754;18.636;2023-04-09T06:24:21;99000.11;;;9.84;100.00
56992;BME280;42885;49.754;18.636;2023-04-09T06:26:52;98999.62;;;10.14;100.00
56992;BME280;42885;49.754;18.636;2023-04-09T06:29:23;98992.70;;;10.22;100.00
56992;BME280;42885;49.754;18.636;2023-04-09T06:31:59;98996.42;;;10.45;100.00
56992;BME280;42885;49.754;18.636;2023-04-09T06:34:30;98995.74;;;10.51;100.00
56992;BME280;42885;49.754;18.636;2023-04-09T06:37:06;98996.19;;;10.31;100.00
56992;BME280;42885;49.754;18.636;2023-04-09T06:39:39;99002.83;;;10.29;100.00
56992;BME280;42885;49.754;18.636;2023-04-09T06:42:10;99005.19;;;10.25;100.00
56992;BME280;42885;49.754;18.636;2023-04-09T06:44:52;99006.95;;;10.44;100.00
56992;BME280;42885;49.754;18.636;2023-04-09T06:47:23;99004.20;;;10.56;100.00
56992;BME280;42885;49.754;18.636;2023-04-09T06:49:55;99001.13;;;10.56;100.00
56992;BME280;42885;49.754;18.636;2023-04-09T06:52:26;99007.33;;;10.45;100.00
56992;BME280;42885;49.754;18.636;2023-04-09T06:54:57;99004.91;;;10.51;100.00
56992;BME280;42885;49.754;18.636;2023-04-09T06:57:28;99011.77;;;10.34;100.00
56992;BME280;42885;49.754;18.636;2023-04-09T06:59:59;98999.84;;;10.92;100.00
56992;BME280;42885;49.754;18.636;2023-04-09T07:02:31;98997.84;;;11.98;100.00
56992;BME280;42885;49.754;18.636;2023-04-09T07:05:03;98992.72;;;11.88;100.00
56992;BME280;42885;49.754;18.636;2023-04-09T07:07:34;98994.07;;;11.03;100.00
56992;BME280;42885;49.754;18.636;2023-04-09T07:10:08;99000.53;;;10.95;100.00
56992;BME280;42885;49.754;18.636;2023-04-09T07:12:39;99009.02;;;11.00;100.00
56992;BME280;42885;49.754;18.636;2023-04-09T07:15:10;99001.98;;;11.27;100.00
56992;BME280;42885;49.754;18.636;2023-04-09T07:17:45;99003.02;;;11.41;100.00
56992;BME280;42885;49.754;18.636;2023-04-09T07:20:23;99009.14;;;11.15;100.00
56992;BME280;42885;49.754;18.636;2023-04-09T07:22:57;99008.46;;;11.20;100.00
56992;BME280;42885;49.754;18.636;2023-04-09T07:25:28;99006.77;;;11.53;100.00
56992;BME280;42885;49.754;18.636;2023-04-09T07:27:59;99004.77;;;11.58;100.00
56992;BME280;42885;49.754;18.636;2023-04-09T07:30:30;98999.14;;;11.82;100.00
56992;BME280;42885;49.754;18.636;2023-04-09T07:33:01;98999.92;;;12.25;100.00
56992;BME280;42885;49.754;18.636;2023-04-09T07:35:33;98994.69;;;12.32;99.60
56992;BME280;42885;49.754;18.636;2023-04-09T07:38:05;98999.55;;;11.74;100.00
56992;BME280;42885;49.754;18.636;2023-04-09T07:40:36;98997.22;;;11.77;100.00
56992;BME280;42885;49.754;18.636;2023-04-09T07:43:08;99001.03;;;11.71;100.00
56992;BME280;42885;49.754;18.636;2023-04-09T07:45:39;99005.83;;;11.72;100.00
56992;BME280;42885;49.754;18.636;2023-04-09T07:48:10;98998.16;;;11.76;100.00
56992;BME280;42885;49.754;18.636;2023-04-09T07:50:41;99001.84;;;11.80;100.00
56992;BME280;42885;49.754;18.636;2023-04-09T07:53:13;98999.08;;;11.83;100.00
56992;BME280;42885;49.754;18.636;2023-04-09T07:55:45;98999.83;;;11.86;100.00
56992;BME280;42885;49.754;18.636;2023-04-09T07:58:16;99004.52;;;11.88;100.00
56992;BME280;42885;49.754;18.636;2023-04-09T08:00:53;99005.00;;;11.62;100.00
56992;BME280;42885;49.754;18.636;2023-04-09T08:03:25;99005.91;;;11.86;100.00
56992;BME280;42885;49.754;18.636;2023-04-09T08:05:57;99007.05;;;12.30;98.74
56992;BME280;42885;49.754;18.636;2023-04-09T08:08:28;99008.92;;;12.28;96.25
56992;BME280;42885;49.754;18.636;2023-04-09T08:11:01;99001.20;;;11.68;100.00
56992;BME280;42885;49.754;18.636;2023-04-09T08:13:32;99009.51;;;11.76;100.00
56992;BME280;42885;49.754;18.636;2023-04-09T08:16:03;99009.81;;;12.20;98.14
56992;BME280;42885;49.754;18.636;2023-04-09T08:18:35;99003.03;;;12.16;94.63
56992;BME280;42885;49.754;18.636;2023-04-09T08:21:06;99006.15;;;11.56;100.00
56992;BME280;42885;49.754;18.636;2023-04-09T08:23:37;99011.95;;;11.79;100.00
56992;BME280;42885;49.754;18.636;2023-04-09T08:26:08;99013.09;;;12.07;98.10
56992;BME280;42885;49.754;18.636;2023-04-09T08:28:40;99012.64;;;11.99;97.38
56992;BME280;42885;49.754;18.636;2023-04-09T08:31:11;99013.68;;;11.96;97.10
56992;BME280;42885;49.754;18.636;2023-04-09T08:33:43;99012.39;;;12.13;96.51
56992;BME280;42885;49.754;18.636;2023-04-09T08:36:14;99019.33;;;12.14;97.42
56992;BME280;42885;49.754;18.636;2023-04-09T08:38:45;99019.33;;;12.14;96.80
56992;BME280;42885;49.754;18.636;2023-04-09T08:41:20;99011.70;;;12.41;95.71
56992;BME280;42885;49.754;18.636;2023-04-09T08:43:56;99011.75;;;12.48;93.76
56992;BME280;42885;49.754;18.636;2023-04-09T08:46:28;99011.09;;;12.75;92.09
56992;BME280;42885;49.754;18.636;2023-04-09T08:48:59;99005.45;;;13.05;86.37
56992;BME280;42885;49.754;18.636;2023-04-09T08:51:30;99015.66;;;13.33;86.93
56992;BME280;42885;49.754;18.636;2023-04-09T08:54:02;99014.15;;;13.36;85.29
56992;BME280;42885;49.754;18.636;2023-04-09T08:56:33;99011.91;;;13.44;81.14
56992;BME280;42885;49.754;18.636;2023-04-09T08:59:04;99008.00;;;13.59;81.03
56992;BME280;42885;49.754;18.636;2023-04-09T09:01:35;99003.69;;;14.22;78.63
56992;BME280;42885;49.754;18.636;2023-04-09T09:04:07;99004.76;;;14.94;72.75
56992;BME280;42885;49.754;18.636;2023-04-09T09:06:40;98995.86;;;15.03;69.46
56992;BME280;42885;49.754;18.636;2023-04-09T09:09:14;99001.01;;;15.04;67.51
56992;BME280;42885;49.754;18.636;2023-04-09T09:11:47;98994.74;;;15.51;66.84
56992;BME280;42885;49.754;18.636;2023-04-09T09:14:23;98990.63;;;15.60;62.55
56992;BME280;42885;49.754;18.636;2023-04-09T09:19:32;98985.11;;;15.76;62.42
56992;BME280;42885;49.754;18.636;2023-04-09T09:22:05;98987.42;;;15.49;63.37
56992;BME280;42885;49.754;18.636;2023-04-09T09:24:48;98987.81;;;15.95;61.92
56992;BME280;42885;49.754;18.636;2023-04-09T09:27:36;98988.95;;;15.07;60.54
56992;BME280;42885;49.754;18.636;2023-04-09T09:30:18;98980.98;;;15.14;63.99
56992;BME280;42885;49.754;18.636;2023-04-09T09:32:42;98990.02;;;15.44;66.45
56992;BME280;42885;49.754;18.636;2023-04-09T09:35:14;98983.84;;;15.11;65.04
56992;BME280;42885;49.754;18.636;2023-04-09T09:37:45;98986.14;;;15.03;65.28
56992;BME280;42885;49.754;18.636;2023-04-09T09:40:29;98995.08;;;14.60;66.96
56992;BME280;42885;49.754;18.636;2023-04-09T09:42:56;98996.35;;;14.47;67.19
56992;BME280;42885;49.754;18.636;2023-04-09T09:45:29;98987.39;;;14.84;65.36
56992;BME280;42885;49.754;18.636;2023-04-09T09:48:00;98984.50;;;14.95;66.25
56992;BME280;42885;49.754;18.636;2023-04-09T09:50:34;98989.66;;;14.83;66.24
56992;BME280;42885;49.754;18.636;2023-04-09T09:53:06;98991.82;;;14.97;65.55
56992;BME280;42885;49.754;18.636;2023-04-09T09:55:39;98991.82;;;14.97;65.55
56992;BME280;42885;49.754;18.636;2023-04-09T09:58:16;98993.50;;;14.98;64.24
56992;BME280;42885;49.754;18.636;2023-04-09T10:00:49;98989.33;;;15.21;65.84
56992;BME280;42885;49.754;18.636;2023-04-09T10:03:26;98986.69;;;14.13;71.15
56992;BME280;42885;49.754;18.636;2023-04-09T10:06:01;98985.23;;;13.94;71.52
56992;BME280;42885;49.754;18.636;2023-04-09T10:08:33;98985.23;;;13.94;71.52
56992;BME280;42885;49.754;18.636;2023-04-09T10:11:06;98991.06;;;13.99;72.36
56992;BME280;42885;49.754;18.636;2023-04-09T10:13:45;98988.91;;;13.77;71.88
56992;BME280;42885;49.754;18.636;2023-04-09T10:16:17;98983.55;;;14.48;69.59
56992;BME280;42885;49.754;18.636;2023-04-09T10:18:48;98980.41;;;15.04;66.53
56992;BME280;42885;49.754;18.636;2023-04-09T10:21:32;98985.11;;;15.19;65.50
56992;BME280;42885;49.754;18.636;2023-04-09T10:24:03;98978.13;;;14.92;67.07
56992;BME280;42885;49.754;18.636;2023-04-09T10:26:40;98983.02;;;14.78;66.05
56992;BME280;42885;49.754;18.636;2023-04-09T10:29:14;98978.45;;;14.59;67.97
56992;BME280;42885;49.754;18.636;2023-04-09T10:32:05;98972.80;;;14.86;67.47
56992;BME280;42885;49.754;18.636;2023-04-09T10:34:38;98978.16;;;14.37;67.86
56992;BME280;42885;49.754;18.636;2023-04-09T10:37:20;98974.59;;;14.30;70.50
56992;BME280;42885;49.754;18.636;2023-04-09T10:39:48;98973.48;;;14.27;69.00
56992;BME280;42885;49.754;18.636;2023-04-09T10:42:45;98974.39;;;14.41;69.22
56992;BME280;42885;49.754;18.636;2023-04-09T10:45:05;98968.65;;;14.62;69.20
56992;BME280;42885;49.754;18.636;2023-04-09T10:47:38;98970.79;;;14.49;69.82
56992;BME280;42885;49.754;18.636;2023-04-09T10:50:18;98969.43;;;14.36;70.76
56992;BME280;42885;49.754;18.636;2023-04-09T10:52:55;98970.65;;;14.30;70.42
56992;BME280;42885;49.754;18.636;2023-04-09T10:55:36;98972.22;;;14.06;73.29
56992;BME280;42885;49.754;18.636;2023-04-09T10:58:10;98968.54;;;14.15;74.86
56992;BME280;42885;49.754;18.636;2023-04-09T11:00:43;98968.82;;;14.18;73.69
56992;BME280;42885;49.754;18.636;2023-04-09T11:03:27;98973.89;;;14.14;74.27
56992;BME280;42885;49.754;18.636;2023-04-09T11:06:03;98967.74;;;14.00;76.21
56992;BME280;42885;49.754;18.636;2023-04-09T11:08:39;98968.48;;;14.02;74.28
56992;BME280;42885;49.754;18.636;2023-04-09T11:11:11;98973.47;;;13.93;74.34
56992;BME280;42885;49.754;18.636;2023-04-09T11:13:42;98971.80;;;13.84;74.35
56992;BME280;42885;49.754;18.636;2023-04-09T11:16:13;98973.67;;;13.97;73.52
56992;BME280;42885;49.754;18.636;2023-04-09T11:18:45;98964.63;;;13.94;72.74
56992;BME280;42885;49.754;18.636;2023-04-09T11:21:17;98970.82;;;14.07;71.78
56992;BME280;42885;49.754;18.636;2023-04-09T11:23:54;98971.67;;;14.55;69.76
56992;BME280;42885;49.754;18.636;2023-04-09T11:26:33;98956.54;;;14.79;69.27
56992;BME280;42885;49.754;18.636;2023-04-09T11:29:09;98957.44;;;14.65;62.98
56992;BME280;42885;49.754;18.636;2023-04-09T11:31:48;98958.11;;;14.41;63.76
56992;BME280;42885;49.754;18.636;2023-04-09T11:34:14;98961.75;;;14.66;63.46
56992;BME280;42885;49.754;18.636;2023-04-09T11:36:48;98958.13;;;14.82;62.16
56992;BME280;42885;49.754;18.636;2023-04-09T11:39:19;98953.08;;;14.79;62.96
56992;BME280;42885;49.754;18.636;2023-04-09T11:41:50;98955.69;;;14.58;62.06
56992;BME280;42885;49.754;18.636;2023-04-09T11:44:21;98957.41;;;14.52;62.34
56992;BME280;42885;49.754;18.636;2023-04-09T11:46:52;98958.50;;;14.35;63.33
56992;BME280;42885;49.754;18.636;2023-04-09T11:49:24;98962.20;;;14.33;64.49
56992;BME280;42885;49.754;18.636;2023-04-09T11:51:55;98959.63;;;14.38;64.87
56992;BME280;42885;49.754;18.636;2023-04-09T11:54:36;98959.12;;;14.46;66.28
56992;BME280;42885;49.754;18.636;2023-04-09T11:57:04;98963.70;;;14.29;67.00
56992;BME280;42885;49.754;18.636;2023-04-09T11:59:37;98963.34;;;14.21;66.41
56992;BME280;42885;49.754;18.636;2023-04-09T12:02:08;98968.69;;;13.99;68.08
56992;BME280;42885;49.754;18.636;2023-04-09T12:04:53;98966.60;;;13.97;69.18
56992;BME280;42885;49.754;18.636;2023-04-09T12:07:13;98970.92;;;13.98;71.92
56992;BME280;42885;49.754;18.636;2023-04-09T12:09:47;98975.58;;;13.66;73.59
56992;BME280;42885;49.754;18.636;2023-04-09T12:12:19;98975.09;;;13.73;76.80
56992;BME280;42885;49.754;18.636;2023-04-09T12:14:50;98970.77;;;13.80;76.81
56992;BME280;42885;49.754;18.636;2023-04-09T12:17:22;98970.31;;;13.80;76.90
56992;BME280;42885;49.754;18.636;2023-04-09T12:19:53;98976.15;;;13.78;78.54
56992;BME280;42885;49.754;18.636;2023-04-09T12:22:24;98973.61;;;13.76;80.04
56992;BME280;42885;49.754;18.636;2023-04-09T12:24:55;98977.27;;;13.67;79.41
56992;BME280;42885;49.754;18.636;2023-04-09T12:27:26;98970.12;;;13.76;78.50
56992;BME280;42885;49.754;18.636;2023-04-09T12:29:57;98973.32;;;13.74;77.81
56992;BME280;42885;49.754;18.636;2023-04-09T12:32:28;98973.03;;;13.79;79.26
56992;BME280;42885;49.754;18.636;2023-04-09T12:34:59;98963.98;;;13.90;78.03
56992;BME280;42885;49.754;18.636;2023-04-09T12:37:30;98970.61;;;13.75;79.83
56992;BME280;42885;49.754;18.636;2023-04-09T12:40:00;98972.50;;;13.59;81.58
56992;BME280;42885;49.754;18.636;2023-04-09T12:42:32;98970.03;;;13.78;82.42
56992;BME280;42885;49.754;18.636;2023-04-09T12:45:03;98968.50;;;13.88;78.87
56992;BME280;42885;49.754;18.636;2023-04-09T12:47:35;98973.77;;;13.88;77.94
56992;BME280;42885;49.754;18.636;2023-04-09T12:50:07;98970.41;;;13.71;77.67
56992;BME280;42885;49.754;18.636;2023-04-09T12:52:39;98965.58;;;13.93;76.98
56992;BME280;42885;49.754;18.636;2023-04-09T12:55:11;98963.02;;;13.98;75.07
56992;BME280;42885;49.754;18.636;2023-04-09T12:57:43;98961.92;;;13.88;77.91
56992;BME280;42885;49.754;18.636;2023-04-09T13:00:15;98966.14;;;13.98;76.50
56992;BME280;42885;49.754;18.636;2023-04-09T13:02:46;98963.42;;;13.99;74.75
56992;BME280;42885;49.754;18.636;2023-04-09T13:05:17;98966.97;;;13.98;74.36
56992;BME280;42885;49.754;18.636;2023-04-09T13:07:48;98967.77;;;13.86;74.10
56992;BME280;42885;49.754;18.636;2023-04-09T13:10:20;98964.33;;;14.06;72.31
56992;BME280;42885;49.754;18.636;2023-04-09T13:12:52;98962.42;;;14.15;69.09
56992;BME280;42885;49.754;18.636;2023-04-09T13:15:23;98959.03;;;14.48;67.50
56992;BME280;42885;49.754;18.636;2023-04-09T13:17:55;98959.03;;;14.48;67.50
56992;BME280;42885;49.754;18.636;2023-04-09T13:20:26;98951.77;;;14.71;69.04
56992;BME280;42885;49.754;18.636;2023-04-09T13:22:57;98959.45;;;14.54;72.06
56992;BME280;42885;49.754;18.636;2023-04-09T13:25:28;98959.13;;;14.66;73.29